createdAt,value
2022-07-29T00:01:44.270Z,17.50
2022-07-29T00:04:13.577Z,16.42
2022-07-29T00:06:42.352Z,18.52
2022-07-29T00:09:10.901Z,19.00
2022-07-29T00:11:39.094Z,17.67
2022-07-29T00:14:07.623Z,17.47
2022-07-29T00:16:36.193Z,14.15
2022-07-29T00:19:05.177Z,20.08
2022-07-29T00:21:33.162Z,15.40
2022-07-29T00:24:02.696Z,18.33
2022-07-29T00:26:33.290Z,15.73
2022-07-29T00:29:32.616Z,14.70
2022-07-29T00:31:52.152Z,15.27
2022-07-29T00:34:38.663Z,16.40
2022-07-29T00:37:07.946Z,12.93
2022-07-29T00:39:36.011Z,16.73
2022-07-29T00:42:06.174Z,14.50
2022-07-29T00:44:39.702Z,16.08
2022-07-29T00:47:08.618Z,15.60
2022-07-29T00:49:37.267Z,15.02
2022-07-29T00:52:06.906Z,15.07
2022-07-29T00:54:44.826Z,12.48
2022-07-29T00:57:14.251Z,12.00
2022-07-29T00:59:42.871Z,11.20
2022-07-29T01:02:11.373Z,10.47
2022-07-29T01:04:39.918Z,13.27
2022-07-29T01:07:08.833Z,14.30
2022-07-29T01:09:45.352Z,9.60
2022-07-29T01:12:28.579Z,11.95
2022-07-29T01:14:57.857Z,10.13
2022-07-29T01:17:35.326Z,16.83
2022-07-29T01:20:12.980Z,12.30
2022-07-29T01:23:02.432Z,10.90
2022-07-29T01:25:55.805Z,10.40
2022-07-29T01:28:40.238Z,11.68
2022-07-29T01:31:24.971Z,11.05
2022-07-29T01:34:00.713Z,10.68
2022-07-29T01:36:39.161Z,11.23
2022-07-29T01:39:19.996Z,11.15
2022-07-29T01:42:23.887Z,8.75
2022-07-29T01:45:03.099Z,13.07
2022-07-29T01:47:40.881Z,11.82
2022-07-29T01:50:13.779Z,11.18
2022-07-29T01:53:05.546Z,11.07
2022-07-29T01:55:39.291Z,10.57
2022-07-29T01:58:09.191Z,10.30
2022-07-29T02:00:39.286Z,13.02
2022-07-29T02:03:14.776Z,9.75
2022-07-29T02:05:46.998Z,11.07
2022-07-29T02:08:16.626Z,14.27
2022-07-29T02:10:46.000Z,10.98
2022-07-29T02:13:15.354Z,10.68
2022-07-29T02:15:45.041Z,11.82
2022-07-29T02:18:18.267Z,10.40
2022-07-29T02:20:52.153Z,12.73
2022-07-29T02:23:24.851Z,8.80
2022-07-29T02:25:58.374Z,10.57
2022-07-29T02:28:29.951Z,9.13
2022-07-29T02:31:03.784Z,9.52
2022-07-29T02:33:33.797Z,12.85
2022-07-29T02:36:03.246Z,9.52
2022-07-29T02:38:52.415Z,10.33
2022-07-29T02:41:32.341Z,9.57
2022-07-29T02:44:13.922Z,9.18
2022-07-29T02:47:23.790Z,9.00
2022-07-29T02:50:11.005Z,8.95
2022-07-29T02:52:41.849Z,8.90
2022-07-29T02:55:19.400Z,12.60
2022-07-29T02:58:00.101Z,9.40
2022-07-29T03:00:34.038Z,8.82
2022-07-29T03:03:05.115Z,10.32
2022-07-29T03:05:34.041Z,10.90
2022-07-29T03:08:08.016Z,9.85
2022-07-29T03:10:38.255Z,8.67
2022-07-29T03:13:07.138Z,12.10
2022-07-29T03:15:35.550Z,9.35
2022-07-29T03:18:04.314Z,8.77
2022-07-29T03:20:32.418Z,9.60
2022-07-29T03:23:00.905Z,10.02
2022-07-29T03:25:28.896Z,9.57
2022-07-29T03:27:57.853Z,10.33
2022-07-29T03:30:26.101Z,11.48
2022-07-29T03:32:58.928Z,8.82
2022-07-29T03:35:27.375Z,11.45
2022-07-29T03:37:55.300Z,10.30
2022-07-29T03:40:57.554Z,12.75
2022-07-29T03:43:34.742Z,10.87
2022-07-29T03:46:05.958Z,9.88
2022-07-29T03:48:41.462Z,10.73
2022-07-29T03:51:09.581Z,11.55
2022-07-29T03:53:37.985Z,9.05
2022-07-29T03:56:07.990Z,8.55
2022-07-29T03:58:36.683Z,8.30
2022-07-29T04:01:05.101Z,10.40
2022-07-29T04:03:33.306Z,8.88
2022-07-29T04:06:07.517Z,8.80
2022-07-29T04:08:36.330Z,10.48
2022-07-29T04:11:05.526Z,10.30
2022-07-29T04:13:34.328Z,9.20
2022-07-29T04:16:02.612Z,9.48
2022-07-29T04:18:30.760Z,11.73
2022-07-29T04:21:02.219Z,10.52
2022-07-29T04:23:35.453Z,14.32
2022-07-29T04:26:15.603Z,10.85
2022-07-29T04:28:44.339Z,10.67
2022-07-29T04:31:13.791Z,12.77
2022-07-29T04:33:42.233Z,12.18
2022-07-29T04:36:28.650Z,10.65
2022-07-29T04:38:59.039Z,10.05
2022-07-29T04:41:32.767Z,11.90
2022-07-29T04:44:07.428Z,10.85
2022-07-29T04:46:37.491Z,8.87
2022-07-29T04:49:05.711Z,11.05
2022-07-29T04:51:33.737Z,11.73
2022-07-29T04:54:02.078Z,12.13
2022-07-29T04:56:30.241Z,9.82
2022-07-29T04:58:58.411Z,9.13
2022-07-29T05:01:26.780Z,12.47
2022-07-29T05:03:59.869Z,13.07
2022-07-29T05:06:29.071Z,11.48
2022-07-29T05:08:57.268Z,11.50
2022-07-29T05:11:30.070Z,13.10
2022-07-29T05:13:58.775Z,12.50
2022-07-29T05:16:26.893Z,12.00
2022-07-29T05:18:55.199Z,13.73
2022-07-29T05:21:23.395Z,12.30
2022-07-29T05:23:52.052Z,12.75
2022-07-29T05:26:26.325Z,13.43
2022-07-29T05:28:55.425Z,13.40
2022-07-29T05:31:23.398Z,12.57
2022-07-29T05:33:51.692Z,16.93
2022-07-29T05:36:20.646Z,18.35
2022-07-29T05:38:48.955Z,15.75
2022-07-29T05:41:16.947Z,18.48
2022-07-29T05:43:45.430Z,17.38
2022-07-29T05:46:13.453Z,17.73
2022-07-29T05:48:47.725Z,20.67
2022-07-29T05:51:16.060Z,19.17
2022-07-29T05:53:44.320Z,21.65
2022-07-29T05:56:13.435Z,17.05
2022-07-29T05:58:41.434Z,17.38
2022-07-29T06:01:09.636Z,17.13
2022-07-29T06:03:39.434Z,13.63
2022-07-29T06:06:08.833Z,23.98
2022-07-29T06:08:37.651Z,16.13
2022-07-29T06:11:06.791Z,17.98
2022-07-29T06:13:34.681Z,15.20
2022-07-29T06:16:06.822Z,16.20
2022-07-29T06:18:35.235Z,14.50
2022-07-29T06:21:03.303Z,13.95
2022-07-29T06:23:32.808Z,13.68
2022-07-29T06:26:01.366Z,14.65
2022-07-29T06:28:29.611Z,14.53
2022-07-29T06:30:57.978Z,13.10
2022-07-29T06:33:25.814Z,18.92
2022-07-29T06:35:55.252Z,15.15
2022-07-29T06:38:33.844Z,16.25
2022-07-29T06:41:06.566Z,16.37
2022-07-29T06:43:50.592Z,16.63
2022-07-29T06:46:20.992Z,18.25
2022-07-29T06:48:50.262Z,13.57
2022-07-29T06:51:21.795Z,14.60
2022-07-29T06:53:59.822Z,12.98
2022-07-29T06:56:39.137Z,15.87
2022-07-29T06:59:12.374Z,15.90
2022-07-29T07:01:43.963Z,15.90
2022-07-29T07:04:13.336Z,14.80
2022-07-29T07:06:41.430Z,14.35
2022-07-29T07:09:09.647Z,16.77
2022-07-29T07:11:37.743Z,18.30
2022-07-29T07:14:05.913Z,16.52
2022-07-29T07:16:34.461Z,16.35
2022-07-29T07:19:02.943Z,16.58
2022-07-29T07:21:31.500Z,17.13
2022-07-29T07:24:00.785Z,14.93
2022-07-29T07:26:29.145Z,20.88
2022-07-29T07:28:57.486Z,12.93
2022-07-29T07:31:25.665Z,13.07
2022-07-29T07:33:54.943Z,18.25
2022-07-29T07:36:23.437Z,17.30
2022-07-29T07:38:51.904Z,15.23
2022-07-29T07:41:19.935Z,14.23
2022-07-29T07:43:48.273Z,24.13
2022-07-29T07:46:16.961Z,17.65
2022-07-29T07:48:45.884Z,17.50
2022-07-29T07:51:14.038Z,14.53
2022-07-29T07:53:42.218Z,14.77
2022-07-29T07:56:11.892Z,13.95
2022-07-29T07:58:41.598Z,14.13
2022-07-29T08:01:10.744Z,15.75
2022-07-29T08:03:38.961Z,13.02
2022-07-29T08:06:07.440Z,15.23
2022-07-29T08:08:36.368Z,16.03
2022-07-29T08:11:09.481Z,17.85
2022-07-29T08:13:39.500Z,14.82
2022-07-29T08:16:16.607Z,12.82
2022-07-29T08:18:46.954Z,15.73
2022-07-29T08:21:16.605Z,14.90
2022-07-29T08:23:59.890Z,15.27
2022-07-29T08:26:29.264Z,12.15
2022-07-29T08:28:57.277Z,15.77
2022-07-29T08:31:25.658Z,12.55
2022-07-29T08:33:53.714Z,13.32
2022-07-29T08:36:22.628Z,14.40
2022-07-29T08:38:50.940Z,23.17
2022-07-29T08:41:20.882Z,15.00
2022-07-29T08:43:50.704Z,14.10
2022-07-29T08:46:19.895Z,13.68
2022-07-29T08:48:48.749Z,11.70
2022-07-29T08:51:22.121Z,11.60
2022-07-29T08:53:51.477Z,13.20
2022-07-29T08:56:21.252Z,15.52
2022-07-29T08:58:52.184Z,11.98
2022-07-29T09:01:36.199Z,10.93
2022-07-29T09:04:14.092Z,10.63
2022-07-29T09:06:46.832Z,10.57
2022-07-29T09:09:16.079Z,11.63
2022-07-29T09:11:44.291Z,13.07
2022-07-29T09:14:15.677Z,12.32
2022-07-29T09:17:00.866Z,11.60
2022-07-29T09:19:34.145Z,10.60
2022-07-29T09:22:05.008Z,10.03
2022-07-29T09:24:48.101Z,11.53
2022-07-29T09:27:23.541Z,11.50
2022-07-29T09:30:02.658Z,14.90
2022-07-29T09:32:32.603Z,11.07
2022-07-29T09:35:27.318Z,14.80
2022-07-29T09:37:56.567Z,9.50
2022-07-29T09:40:27.514Z,9.80
2022-07-29T09:43:00.015Z,12.63
2022-07-29T09:45:33.346Z,10.55
2022-07-29T09:48:14.298Z,13.00
2022-07-29T09:50:43.903Z,13.57
2022-07-29T09:53:30.651Z,10.77
2022-07-29T09:55:58.919Z,11.03
2022-07-29T09:58:27.175Z,12.75
2022-07-29T10:00:56.721Z,11.05
2022-07-29T10:03:25.666Z,11.90
2022-07-29T10:06:11.430Z,10.60
2022-07-29T10:08:40.130Z,10.77
2022-07-29T10:11:26.981Z,10.43
2022-07-29T10:14:15.967Z,10.60
2022-07-29T10:16:44.182Z,14.65
2022-07-29T10:19:15.265Z,14.25
2022-07-29T10:21:45.678Z,13.43
2022-07-29T10:24:14.840Z,8.77
2022-07-29T10:26:44.456Z,10.07
2022-07-29T10:29:12.827Z,8.57
2022-07-29T10:31:55.090Z,8.60
2022-07-29T10:34:36.280Z,9.45
2022-07-29T10:37:35.937Z,11.50
2022-07-29T10:40:35.845Z,9.10
2022-07-29T10:43:30.201Z,10.27
2022-07-29T10:46:02.177Z,10.82
2022-07-29T10:48:30.738Z,10.65
2022-07-29T10:51:06.987Z,8.18
2022-07-29T10:53:53.316Z,8.57
2022-07-29T10:56:42.198Z,11.70
2022-07-29T10:59:22.894Z,8.40
2022-07-29T11:01:53.729Z,9.32
2022-07-29T11:04:45.351Z,7.65
2022-07-29T11:07:17.848Z,7.93
2022-07-29T11:09:46.857Z,8.87
2022-07-29T11:12:40.215Z,6.85
2022-07-29T11:15:20.471Z,8.10
2022-07-29T11:18:02.281Z,7.05
2022-07-29T11:20:51.517Z,8.98
2022-07-29T11:23:33.439Z,9.50
2022-07-29T11:26:18.856Z,7.75
2022-07-29T11:29:01.182Z,7.70
2022-07-29T11:31:35.843Z,8.75
2022-07-29T11:34:29.853Z,8.07
2022-07-29T11:37:16.179Z,8.77
2022-07-29T11:39:58.259Z,7.28
2022-07-29T11:42:34.404Z,9.65
2022-07-29T11:45:42.497Z,5.55
2022-07-29T11:48:27.719Z,7.18
2022-07-29T11:50:50.205Z,6.73
2022-07-29T11:53:18.625Z,6.60
2022-07-29T11:55:50.898Z,7.00
2022-07-29T11:58:29.974Z,9.02
2022-07-29T12:01:05.034Z,5.78
2022-07-29T12:03:36.427Z,6.80
2022-07-29T12:07:03.926Z,5.70
2022-07-29T12:09:08.701Z,5.80
2022-07-29T12:11:47.427Z,7.80
2022-07-29T12:14:32.717Z,6.90
2022-07-29T12:17:02.766Z,7.60
2022-07-29T12:19:44.998Z,5.70
2022-07-29T12:22:13.277Z,7.80
2022-07-29T12:24:46.254Z,8.60
2022-07-29T12:27:19.510Z,5.57
2022-07-29T12:30:02.531Z,6.53
2022-07-29T12:32:38.742Z,7.43
2022-07-29T12:35:09.395Z,6.75
2022-07-29T12:37:42.762Z,6.47
2022-07-29T12:40:18.036Z,6.22
2022-07-29T12:43:19.179Z,7.03
2022-07-29T12:45:52.696Z,7.57
2022-07-29T12:48:42.129Z,4.88
2022-07-29T12:51:15.990Z,6.82
2022-07-29T12:54:14.926Z,9.05
2022-07-29T12:56:45.547Z,6.97
2022-07-29T12:59:22.577Z,10.55
2022-07-29T13:01:52.860Z,8.18
2022-07-29T13:04:37.921Z,7.70
2022-07-29T13:07:10.402Z,8.43
2022-07-29T13:09:44.493Z,6.33
2022-07-29T13:12:16.679Z,8.65
2022-07-29T13:14:47.312Z,7.60
2022-07-29T13:17:22.079Z,7.70
2022-07-29T13:19:51.160Z,6.18
2022-07-29T13:22:26.178Z,6.13
2022-07-29T13:24:58.803Z,5.22
2022-07-29T13:27:30.488Z,6.43
2022-07-29T13:30:01.126Z,5.75
2022-07-29T13:32:31.251Z,7.10
2022-07-29T13:35:01.817Z,6.43
2022-07-29T13:37:36.388Z,5.55
2022-07-29T13:40:06.904Z,6.80
2022-07-29T13:42:35.904Z,6.75
2022-07-29T13:45:05.172Z,6.60
2022-07-29T13:47:33.616Z,6.27
2022-07-29T13:50:03.168Z,6.60
2022-07-29T13:52:31.410Z,7.05
2022-07-29T13:55:00.124Z,9.82
2022-07-29T13:57:29.559Z,8.55
2022-07-29T13:59:58.557Z,6.70
2022-07-29T14:02:26.867Z,7.88
2022-07-29T14:04:55.956Z,9.48
2022-07-29T14:07:27.358Z,8.63
2022-07-29T14:09:55.556Z,9.90
2022-07-29T14:12:24.086Z,8.07
2022-07-29T14:14:52.521Z,10.02
2022-07-29T14:17:20.633Z,10.15
2022-07-29T14:19:49.362Z,7.57
2022-07-29T14:22:21.488Z,9.32
2022-07-29T14:24:51.923Z,9.77
2022-07-29T14:27:20.287Z,7.88
2022-07-29T14:30:07.550Z,9.07
2022-07-29T14:32:35.783Z,8.13
2022-07-29T14:35:06.362Z,8.88
2022-07-29T14:37:39.056Z,9.40
2022-07-29T14:40:10.001Z,10.45
2022-07-29T14:42:39.163Z,8.98
2022-07-29T14:45:09.401Z,9.43
2022-07-29T14:47:38.310Z,7.53
2022-07-29T14:50:08.267Z,10.43
2022-07-29T14:52:36.695Z,9.85
2022-07-29T14:55:16.623Z,11.75
2022-07-29T14:57:49.541Z,6.38
2022-07-29T15:00:18.973Z,9.07
2022-07-29T15:03:01.438Z,8.37
2022-07-29T15:05:32.512Z,8.07
2022-07-29T15:08:00.966Z,10.05
2022-07-29T15:10:29.747Z,9.45
2022-07-29T15:12:58.185Z,8.98
2022-07-29T15:15:26.721Z,8.87
2022-07-29T15:17:54.647Z,11.45
2022-07-29T15:20:22.868Z,6.50
2022-07-29T15:22:50.808Z,10.60
2022-07-29T15:25:18.932Z,9.30
2022-07-29T15:27:49.007Z,7.83
2022-07-29T15:30:30.940Z,7.10
2022-07-29T15:33:04.625Z,8.05
2022-07-29T15:35:33.336Z,6.60
2022-07-29T15:38:08.571Z,8.70
2022-07-29T15:40:38.035Z,7.53
2022-07-29T15:43:07.132Z,8.45
2022-07-29T15:45:43.016Z,7.47
2022-07-29T15:48:14.907Z,9.85
2022-07-29T15:50:43.763Z,9.38
2022-07-29T15:53:15.616Z,6.43
2022-07-29T15:55:44.531Z,12.98
2022-07-29T15:58:12.781Z,9.13
2022-07-29T16:00:40.578Z,8.65
2022-07-29T16:03:08.897Z,9.98
2022-07-29T16:05:36.891Z,11.25
2022-07-29T16:08:05.739Z,11.80
2022-07-29T16:10:34.242Z,7.10
2022-07-29T16:13:02.535Z,11.48
2022-07-29T16:15:30.402Z,7.97
2022-07-29T16:17:58.337Z,7.30
2022-07-29T16:20:26.458Z,10.27
2022-07-29T16:22:55.450Z,10.43
2022-07-29T16:25:38.348Z,13.52
2022-07-29T16:28:11.572Z,10.55
2022-07-29T16:30:39.482Z,10.10
2022-07-29T16:33:08.470Z,8.77
2022-07-29T16:35:40.264Z,9.73
2022-07-29T16:38:08.411Z,11.23
2022-07-29T16:40:36.304Z,9.70
2022-07-29T16:43:04.421Z,15.95
2022-07-29T16:45:37.849Z,11.30
2022-07-29T16:48:18.672Z,9.13
2022-07-29T16:50:46.922Z,10.40
2022-07-29T16:53:17.701Z,8.32
2022-07-29T16:55:46.081Z,9.60
2022-07-29T16:58:16.802Z,8.52
2022-07-29T17:00:47.736Z,10.20
2022-07-29T17:03:15.726Z,11.50
2022-07-29T17:05:50.648Z,10.48
2022-07-29T17:08:23.378Z,11.13
2022-07-29T17:10:51.439Z,10.50
2022-07-29T17:13:19.588Z,12.33
2022-07-29T17:15:47.867Z,10.88
2022-07-29T17:18:16.078Z,13.35
2022-07-29T17:20:44.197Z,10.77
2022-07-29T17:23:12.489Z,9.52
2022-07-29T17:25:40.749Z,16.07
2022-07-29T17:28:08.896Z,11.73
2022-07-29T17:30:36.846Z,10.90
2022-07-29T17:33:05.133Z,13.27
2022-07-29T17:35:51.316Z,8.98
2022-07-29T17:38:19.293Z,14.10
2022-07-29T17:40:47.047Z,10.57
2022-07-29T17:43:17.805Z,10.20
2022-07-29T17:45:50.861Z,10.00
2022-07-29T17:48:20.371Z,8.13
2022-07-29T17:50:49.204Z,9.68
2022-07-29T17:53:17.347Z,10.60
2022-07-29T17:55:46.591Z,11.95
2022-07-29T17:58:15.021Z,11.38
2022-07-29T18:00:43.752Z,7.90
2022-07-29T18:03:11.962Z,9.00
2022-07-29T18:05:40.057Z,9.80
2022-07-29T18:08:08.750Z,10.48
2022-07-29T18:10:37.470Z,11.18
2022-07-29T18:13:05.784Z,12.88
2022-07-29T18:15:34.348Z,12.23
2022-07-29T18:18:02.437Z,9.33
2022-07-29T18:20:30.363Z,11.25
2022-07-29T18:22:58.470Z,9.68
2022-07-29T18:25:27.602Z,11.05
2022-07-29T18:27:59.999Z,9.82
2022-07-29T18:30:30.458Z,9.47
2022-07-29T18:33:20.825Z,9.52
2022-07-29T18:35:51.206Z,9.05
2022-07-29T18:38:19.933Z,9.85
2022-07-29T18:40:48.213Z,9.40
2022-07-29T18:43:19.349Z,10.83
2022-07-29T18:45:48.802Z,12.38
2022-07-29T18:48:18.617Z,9.23
2022-07-29T18:50:46.980Z,8.25
2022-07-29T18:53:15.032Z,10.05
2022-07-29T18:55:43.120Z,10.57
2022-07-29T18:58:11.426Z,11.57
2022-07-29T19:00:42.273Z,9.77
2022-07-29T19:03:10.523Z,11.60
2022-07-29T19:05:38.702Z,10.02
2022-07-29T19:08:07.342Z,8.63
2022-07-29T19:10:35.276Z,13.97
2022-07-29T19:13:03.196Z,11.88
2022-07-29T19:29:11.385Z,10.57
2022-07-29T19:31:40.504Z,12.67
2022-07-29T19:34:08.908Z,9.63
2022-07-29T19:36:37.113Z,10.05
2022-07-29T19:39:05.446Z,14.07
2022-07-29T19:41:33.687Z,13.10
2022-07-29T19:44:01.776Z,12.20
2022-07-29T19:46:30.354Z,11.52
2022-07-29T19:48:58.652Z,12.18
2022-07-29T19:51:27.399Z,10.15
2022-07-29T19:53:55.469Z,12.13
2022-07-29T19:56:27.048Z,10.57
2022-07-29T19:58:56.743Z,11.73
2022-07-29T20:01:25.235Z,10.30
2022-07-29T20:03:54.252Z,12.23
2022-07-29T20:06:23.598Z,13.13
2022-07-29T20:08:56.710Z,12.57
2022-07-29T20:14:30.007Z,11.25
2022-07-29T20:16:58.403Z,10.85
2022-07-29T20:19:26.915Z,16.80
2022-07-29T20:21:55.457Z,10.75
2022-07-29T20:24:26.096Z,11.90
2022-07-29T20:26:54.668Z,10.40
2022-07-29T20:29:22.994Z,12.13
2022-07-29T20:31:53.301Z,11.77
2022-07-29T20:34:24.710Z,11.20
2022-07-29T20:36:52.990Z,10.73
2022-07-29T20:39:24.157Z,16.23
2022-07-29T20:41:52.552Z,17.13
2022-07-29T20:44:20.462Z,19.95
2022-07-29T20:46:49.498Z,16.40
2022-07-29T20:49:17.503Z,18.57
2022-07-29T20:51:45.891Z,25.83
2022-07-29T20:54:14.194Z,23.58
2022-07-29T20:56:42.271Z,21.33
2022-07-29T20:59:11.652Z,18.98
2022-07-29T21:01:41.920Z,21.20
2022-07-29T21:04:10.016Z,20.70
2022-07-29T21:06:38.038Z,17.55
2022-07-29T21:09:06.442Z,14.30
2022-07-29T21:11:43.742Z,15.60
2022-07-29T21:14:26.594Z,13.13
2022-07-29T21:16:55.150Z,15.30
2022-07-29T21:19:24.063Z,10.55
2022-07-29T21:21:52.420Z,11.02
2022-07-29T21:24:21.622Z,10.60
2022-07-29T21:27:11.024Z,11.45
2022-07-29T21:29:38.417Z,11.43
2022-07-29T21:32:06.680Z,11.47
2022-07-29T21:34:34.913Z,8.20
2022-07-29T21:37:03.098Z,10.88
2022-07-29T21:39:35.267Z,7.82
2022-07-29T21:42:03.412Z,10.57
2022-07-29T21:44:31.560Z,8.80
2022-07-29T21:46:59.662Z,9.05
2022-07-29T21:49:27.952Z,8.70
2022-07-29T21:51:55.989Z,12.35
2022-07-29T21:54:24.927Z,9.73
2022-07-29T21:56:56.144Z,10.77
2022-07-29T21:59:26.100Z,11.77
2022-07-29T22:01:54.054Z,9.02
2022-07-29T22:04:22.763Z,12.75
2022-07-29T22:06:50.680Z,11.32
2022-07-29T22:09:18.671Z,11.43
2022-07-29T22:11:48.371Z,12.32
2022-07-29T22:14:18.774Z,8.82
2022-07-29T22:16:47.639Z,10.23
2022-07-29T22:19:16.021Z,9.73
2022-07-29T22:21:44.891Z,12.17
2022-07-29T22:24:12.914Z,11.07
2022-07-29T22:26:44.365Z,10.75
2022-07-29T22:29:12.730Z,11.43
2022-07-29T22:31:40.686Z,11.23
2022-07-29T22:34:13.338Z,12.47
2022-07-29T22:36:42.013Z,10.02
2022-07-29T22:39:09.776Z,9.05
2022-07-29T22:41:37.942Z,11.82
2022-07-29T22:44:06.033Z,8.60
2022-07-29T22:46:35.179Z,9.88
2022-07-29T22:49:03.305Z,12.07
2022-07-29T22:51:31.995Z,11.98
2022-07-29T22:53:59.749Z,10.75
2022-07-29T22:56:27.845Z,12.18
2022-07-29T22:58:58.790Z,10.68
2022-07-29T23:01:37.891Z,11.03
2022-07-29T23:04:07.285Z,13.60
2022-07-29T23:06:35.262Z,10.93
2022-07-29T23:09:03.526Z,9.57
2022-07-29T23:11:31.481Z,10.40
2022-07-29T23:14:00.014Z,10.73
2022-07-29T23:16:28.251Z,10.40
2022-07-29T23:18:56.219Z,11.53
2022-07-29T23:21:25.232Z,9.50
2022-07-29T23:23:53.153Z,10.07
2022-07-29T23:26:21.412Z,11.73
2022-07-29T23:28:49.552Z,11.00
2022-07-29T23:31:17.852Z,9.10
2022-07-29T23:33:45.840Z,13.07
2022-07-29T23:36:14.001Z,12.85
2022-07-29T23:38:42.080Z,13.73
2022-07-29T23:41:10.233Z,12.15
2022-07-29T23:43:38.508Z,11.25
2022-07-29T23:46:06.903Z,9.23
2022-07-29T23:48:35.188Z,8.90
2022-07-29T23:51:03.521Z,12.48
2022-07-29T23:53:31.488Z,8.75
2022-07-29T23:55:59.587Z,11.38
2022-07-29T23:58:27.554Z,10.43
